sensor_id;sensor_type;location;lat;lon;timestamp;temperature;humidity
45104;DHT22;30865;51.288;4.572;2023-06-26T00:00:26;21.40;73.40
45104;DHT22;30865;51.288;4.572;2023-06-26T00:02:52;21.30;73.50
45104;DHT22;30865;51.288;4.572;2023-06-26T00:05:17;21.30;73.80
45104;DHT22;30865;51.288;4.572;2023-06-26T00:07:43;21.30;74.00
45104;DHT22;30865;51.288;4.572;2023-06-26T00:10:08;21.20;74.40
45104;DHT22;30865;51.288;4.572;2023-06-26T00:12:34;21.20;76.10
45104;DHT22;30865;51.288;4.572;2023-06-26T00:15:00;21.10;76.50
45104;DHT22;30865;51.288;4.572;2023-06-26T00:17:26;21.10;76.80
45104;DHT22;30865;51.288;4.572;2023-06-26T00:19:51;21.10;77.40
45104;DHT22;30865;51.288;4.572;2023-06-26T00:22:18;21.10;78.10
45104;DHT22;30865;51.288;4.572;2023-06-26T00:24:43;21.00;78.60
45104;DHT22;30865;51.288;4.572;2023-06-26T00:27:10;20.90;79.20
45104;DHT22;30865;51.288;4.572;2023-06-26T00:29:36;20.90;80.10
45104;DHT22;30865;51.288;4.572;2023-06-26T00:32:01;20.80;80.60
45104;DHT22;30865;51.288;4.572;2023-06-26T00:34:27;20.80;81.50
45104;DHT22;30865;51.288;4.572;2023-06-26T00:36:52;20.70;82.20
45104;DHT22;30865;51.288;4.572;2023-06-26T00:39:18;20.70;82.80
45104;DHT22;30865;51.288;4.572;2023-06-26T00:41:43;20.70;83.20
45104;DHT22;30865;51.288;4.572;2023-06-26T00:44:09;20.60;83.90
45104;DHT22;30865;51.288;4.572;2023-06-26T00:46:34;20.60;84.40
45104;DHT22;30865;51.288;4.572;2023-06-26T00:49:02;20.70;84.50
45104;DHT22;30865;51.288;4.572;2023-06-26T00:51:29;20.60;85.20
45104;DHT22;30865;51.288;4.572;2023-06-26T00:53:56;20.60;85.70
45104;DHT22;30865;51.288;4.572;2023-06-26T00:56:22;20.60;86.30
45104;DHT22;30865;51.288;4.572;2023-06-26T00:58:48;20.50;87.20
45104;DHT22;30865;51.288;4.572;2023-06-26T01:01:13;20.50;88.60
45104;DHT22;30865;51.288;4.572;2023-06-26T01:03:44;20.50;89.30
45104;DHT22;30865;51.288;4.572;2023-06-26T01:06:12;20.50;90.10
45104;DHT22;30865;51.288;4.572;2023-06-26T01:08:39;20.50;90.10
45104;DHT22;30865;51.288;4.572;2023-06-26T01:11:06;20.50;90.30
45104;DHT22;30865;51.288;4.572;2023-06-26T01:13:33;20.40;90.30
45104;DHT22;30865;51.288;4.572;2023-06-26T01:15:59;20.40;90.70
45104;DHT22;30865;51.288;4.572;2023-06-26T01:18:26;20.40;90.80
45104;DHT22;30865;51.288;4.572;2023-06-26T01:20:52;20.30;91.00
45104;DHT22;30865;51.288;4.572;2023-06-26T01:23:35;20.40;91.40
45104;DHT22;30865;51.288;4.572;2023-06-26T01:26:22;20.40;91.60
45104;DHT22;30865;51.288;4.572;2023-06-26T01:28:50;20.30;91.90
45104;DHT22;30865;51.288;4.572;2023-06-26T01:31:17;20.20;92.00
45104;DHT22;30865;51.288;4.572;2023-06-26T01:33:43;20.20;92.10
45104;DHT22;30865;51.288;4.572;2023-06-26T01:36:09;20.10;92.40
45104;DHT22;30865;51.288;4.572;2023-06-26T01:38:35;20.10;92.70
45104;DHT22;30865;51.288;4.572;2023-06-26T01:41:01;20.10;93.00
45104;DHT22;30865;51.288;4.572;2023-06-26T01:44:01;20.00;92.90
45104;DHT22;30865;51.288;4.572;2023-06-26T01:46:40;20.00;93.30
45104;DHT22;30865;51.288;4.572;2023-06-26T01:49:16;19.90;93.80
45104;DHT22;30865;51.288;4.572;2023-06-26T01:51:58;19.90;93.90
45104;DHT22;30865;51.288;4.572;2023-06-26T01:54:30;19.90;94.20
45104;DHT22;30865;51.288;4.572;2023-06-26T01:56:59;19.80;94.40
45104;DHT22;30865;51.288;4.572;2023-06-26T01:59:25;19.80;94.70
45104;DHT22;30865;51.288;4.572;2023-06-26T02:01:54;19.80;95.00
45104;DHT22;30865;51.288;4.572;2023-06-26T02:04:19;19.80;95.40
45104;DHT22;30865;51.288;4.572;2023-06-26T02:06:45;19.80;95.70
45104;DHT22;30865;51.288;4.572;2023-06-26T02:09:10;19.80;95.90
45104;DHT22;30865;51.288;4.572;2023-06-26T02:11:36;19.70;96.00
45104;DHT22;30865;51.288;4.572;2023-06-26T02:14:01;19.70;96.10
45104;DHT22;30865;51.288;4.572;2023-06-26T02:16:28;19.70;95.90
45104;DHT22;30865;51.288;4.572;2023-06-26T02:18:53;19.70;96.10
45104;DHT22;30865;51.288;4.572;2023-06-26T02:21:19;19.70;96.50
45104;DHT22;30865;51.288;4.572;2023-06-26T02:23:45;19.60;96.70
45104;DHT22;30865;51.288;4.572;2023-06-26T02:26:10;19.60;97.30
45104;DHT22;30865;51.288;4.572;2023-06-26T02:28:36;19.50;97.80
45104;DHT22;30865;51.288;4.572;2023-06-26T02:31:02;19.40;98.00
45104;DHT22;30865;51.288;4.572;2023-06-26T02:33:27;19.40;98.20
45104;DHT22;30865;51.288;4.572;2023-06-26T02:35:53;19.40;98.40
45104;DHT22;30865;51.288;4.572;2023-06-26T02:38:18;19.40;98.40
45104;DHT22;30865;51.288;4.572;2023-06-26T02:40:44;19.40;98.30
45104;DHT22;30865;51.288;4.572;2023-06-26T02:43:09;19.40;98.30
45104;DHT22;30865;51.288;4.572;2023-06-26T02:45:35;19.40;98.40
45104;DHT22;30865;51.288;4.572;2023-06-26T02:48:00;19.40;98.60
45104;DHT22;30865;51.288;4.572;2023-06-26T02:50:26;19.30;98.90
45104;DHT22;30865;51.288;4.572;2023-06-26T02:52:51;19.30;99.10
45104;DHT22;30865;51.288;4.572;2023-06-26T02:55:18;19.30;99.20
45104;DHT22;30865;51.288;4.572;2023-06-26T02:57:44;19.30;99.50
45104;DHT22;30865;51.288;4.572;2023-06-26T03:00:11;19.20;99.60
45104;DHT22;30865;51.288;4.572;2023-06-26T03:02:36;19.20;99.50
45104;DHT22;30865;51.288;4.572;2023-06-26T03:05:02;19.20;99.60
45104;DHT22;30865;51.288;4.572;2023-06-26T03:07:29;19.10;99.80
45104;DHT22;30865;51.288;4.572;2023-06-26T03:09:55;19.10;99.90
45104;DHT22;30865;51.288;4.572;2023-06-26T03:12:20;19.20;99.90
45104;DHT22;30865;51.288;4.572;2023-06-26T03:14:46;19.20;99.90
45104;DHT22;30865;51.288;4.572;2023-06-26T03:17:11;19.10;99.90
45104;DHT22;30865;51.288;4.572;2023-06-26T03:19:36;19.20;99.90
45104;DHT22;30865;51.288;4.572;2023-06-26T03:22:02;19.10;99.90
45104;DHT22;30865;51.288;4.572;2023-06-26T03:24:29;19.10;99.90
45104;DHT22;30865;51.288;4.572;2023-06-26T03:26:54;19.10;99.80
45104;DHT22;30865;51.288;4.572;2023-06-26T03:29:20;19.20;99.90
45104;DHT22;30865;51.288;4.572;2023-06-26T03:31:45;19.10;99.90
45104;DHT22;30865;51.288;4.572;2023-06-26T03:34:11;19.10;99.90
45104;DHT22;30865;51.288;4.572;2023-06-26T03:36:36;19.00;99.90
45104;DHT22;30865;51.288;4.572;2023-06-26T03:39:02;19.00;99.90
45104;DHT22;30865;51.288;4.572;2023-06-26T03:41:29;19.00;99.90
45104;DHT22;30865;51.288;4.572;2023-06-26T03:43:55;19.00;99.90
45104;DHT22;30865;51.288;4.572;2023-06-26T03:46:25;19.00;99.90
45104;DHT22;30865;51.288;4.572;2023-06-26T03:48:50;19.00;99.90
45104;DHT22;30865;51.288;4.572;2023-06-26T03:51:15;19.00;99.90
45104;DHT22;30865;51.288;4.572;2023-06-26T03:53:41;19.10;99.90
45104;DHT22;30865;51.288;4.572;2023-06-26T03:56:06;19.00;99.90
45104;DHT22;30865;51.288;4.572;2023-06-26T03:58:32;19.00;99.90
45104;DHT22;30865;51.288;4.572;2023-06-26T04:00:57;19.00;99.90
45104;DHT22;30865;51.288;4.572;2023-06-26T04:03:23;19.10;99.90
45104;DHT22;30865;51.288;4.572;2023-06-26T04:05:49;19.00;99.90
45104;DHT22;30865;51.288;4.572;2023-06-26T04:08:15;19.10;99.90
45104;DHT22;30865;51.288;4.572;2023-06-26T04:10:40;19.00;99.90
45104;DHT22;30865;51.288;4.572;2023-06-26T04:13:06;18.80;99.90
45104;DHT22;30865;51.288;4.572;2023-06-26T04:15:31;18.90;99.90
45104;DHT22;30865;51.288;4.572;2023-06-26T04:17:57;18.90;99.90
45104;DHT22;30865;51.288;4.572;2023-06-26T04:20:23;18.80;99.90
45104;DHT22;30865;51.288;4.572;2023-06-26T04:22:48;18.80;99.90
45104;DHT22;30865;51.288;4.572;2023-06-26T04:25:14;18.80;99.90
45104;DHT22;30865;51.288;4.572;2023-06-26T04:27:39;19.00;99.90
45104;DHT22;30865;51.288;4.572;2023-06-26T04:30:05;19.00;99.90
45104;DHT22;30865;51.288;4.572;2023-06-26T04:32:31;19.10;99.90
45104;DHT22;30865;51.288;4.572;2023-06-26T04:34:57;19.20;99.90
45104;DHT22;30865;51.288;4.572;2023-06-26T04:37:22;19.20;99.90
45104;DHT22;30865;51.288;4.572;2023-06-26T04:39:50;19.40;99.90
45104;DHT22;30865;51.288;4.572;2023-06-26T04:42:15;19.40;99.90
45104;DHT22;30865;51.288;4.572;2023-06-26T04:44:41;19.60;99.90
45104;DHT22;30865;51.288;4.572;2023-06-26T04:47:07;19.60;99.90
45104;DHT22;30865;51.288;4.572;2023-06-26T04:49:33;19.60;99.90
45104;DHT22;30865;51.288;4.572;2023-06-26T04:51:58;19.90;99.90
45104;DHT22;30865;51.288;4.572;2023-06-26T04:54:26;19.80;99.40
45104;DHT22;30865;51.288;4.572;2023-06-26T04:56:51;20.00;98.80
45104;DHT22;30865;51.288;4.572;2023-06-26T04:59:17;20.10;98.40
45104;DHT22;30865;51.288;4.572;2023-06-26T05:01:42;20.20;98.40
45104;DHT22;30865;51.288;4.572;2023-06-26T05:04:14;20.20;97.40
45104;DHT22;30865;51.288;4.572;2023-06-26T05:06:40;20.20;97.20
45104;DHT22;30865;51.288;4.572;2023-06-26T05:09:06;20.30;96.90
45104;DHT22;30865;51.288;4.572;2023-06-26T05:11:31;20.40;96.60
45104;DHT22;30865;51.288;4.572;2023-06-26T05:13:57;20.40;96.30
45104;DHT22;30865;51.288;4.572;2023-06-26T05:16:22;20.40;96.30
45104;DHT22;30865;51.288;4.572;2023-06-26T05:18:48;20.40;96.20
45104;DHT22;30865;51.288;4.572;2023-06-26T05:21:13;20.50;96.10
45104;DHT22;30865;51.288;4.572;2023-06-26T05:23:41;20.60;95.90
45104;DHT22;30865;51.288;4.572;2023-06-26T05:26:09;20.80;95.50
45104;DHT22;30865;51.288;4.572;2023-06-26T05:28:35;20.70;95.00
45104;DHT22;30865;51.288;4.572;2023-06-26T05:31:01;20.80;95.10
45104;DHT22;30865;51.288;4.572;2023-06-26T05:33:30;21.00;94.80
45104;DHT22;30865;51.288;4.572;2023-06-26T05:35:56;21.10;94.50
45104;DHT22;30865;51.288;4.572;2023-06-26T05:38:22;21.20;94.20
45104;DHT22;30865;51.288;4.572;2023-06-26T05:40:48;21.20;94.10
45104;DHT22;30865;51.288;4.572;2023-06-26T05:43:14;21.30;94.00
45104;DHT22;30865;51.288;4.572;2023-06-26T05:45:40;21.40;93.70
45104;DHT22;30865;51.288;4.572;2023-06-26T05:48:06;21.60;93.30
45104;DHT22;30865;51.288;4.572;2023-06-26T05:50:32;21.70;93.10
45104;DHT22;30865;51.288;4.572;2023-06-26T05:52:58;21.90;92.60
45104;DHT22;30865;51.288;4.572;2023-06-26T05:55:24;22.10;91.90
45104;DHT22;30865;51.288;4.572;2023-06-26T05:57:59;22.40;91.30
45104;DHT22;30865;51.288;4.572;2023-06-26T06:00:27;22.50;90.80
45104;DHT22;30865;51.288;4.572;2023-06-26T06:02:52;22.70;90.40
45104;DHT22;30865;51.288;4.572;2023-06-26T06:05:20;22.90;89.40
45104;DHT22;30865;51.288;4.572;2023-06-26T06:07:45;23.00;89.00
45104;DHT22;30865;51.288;4.572;2023-06-26T06:10:11;23.10;88.10
45104;DHT22;30865;51.288;4.572;2023-06-26T06:12:36;23.40;86.60
45104;DHT22;30865;51.288;4.572;2023-06-26T06:15:02;23.50;85.90
45104;DHT22;30865;51.288;4.572;2023-06-26T06:17:27;23.60;85.70
45104;DHT22;30865;51.288;4.572;2023-06-26T06:19:53;23.60;85.30
45104;DHT22;30865;51.288;4.572;2023-06-26T06:22:19;23.70;85.20
45104;DHT22;30865;51.288;4.572;2023-06-26T06:24:44;23.80;84.50
45104;DHT22;30865;51.288;4.572;2023-06-26T06:27:10;23.90;84.00
45104;DHT22;30865;51.288;4.572;2023-06-26T06:29:36;23.90;83.50
45104;DHT22;30865;51.288;4.572;2023-06-26T06:32:01;24.00;83.10
45104;DHT22;30865;51.288;4.572;2023-06-26T06:34:27;24.20;82.50
45104;DHT22;30865;51.288;4.572;2023-06-26T06:36:52;24.50;81.40
45104;DHT22;30865;51.288;4.572;2023-06-26T06:39:18;24.40;81.10
45104;DHT22;30865;51.288;4.572;2023-06-26T06:41:43;24.70;80.20
45104;DHT22;30865;51.288;4.572;2023-06-26T06:44:09;24.80;79.40
45104;DHT22;30865;51.288;4.572;2023-06-26T06:46:34;24.90;78.50
45104;DHT22;30865;51.288;4.572;2023-06-26T06:49:00;25.00;78.40
45104;DHT22;30865;51.288;4.572;2023-06-26T06:51:25;25.20;77.50
45104;DHT22;30865;51.288;4.572;2023-06-26T06:53:53;25.40;76.00
45104;DHT22;30865;51.288;4.572;2023-06-26T06:56:18;25.50;75.80
45104;DHT22;30865;51.288;4.572;2023-06-26T06:58:44;25.70;74.80
45104;DHT22;30865;51.288;4.572;2023-06-26T07:01:11;25.70;74.70
45104;DHT22;30865;51.288;4.572;2023-06-26T07:03:37;25.90;73.60
45104;DHT22;30865;51.288;4.572;2023-06-26T07:06:02;26.00;73.10
45104;DHT22;30865;51.288;4.572;2023-06-26T07:08:28;26.40;72.10
45104;DHT22;30865;51.288;4.572;2023-06-26T07:10:54;26.20;71.50
45104;DHT22;30865;51.288;4.572;2023-06-26T07:13:22;26.40;71.30
45104;DHT22;30865;51.288;4.572;2023-06-26T07:15:47;26.60;70.20
45104;DHT22;30865;51.288;4.572;2023-06-26T07:18:13;26.60;69.50
45104;DHT22;30865;51.288;4.572;2023-06-26T07:20:39;26.70;69.60
45104;DHT22;30865;51.288;4.572;2023-06-26T07:23:04;26.80;68.10
45104;DHT22;30865;51.288;4.572;2023-06-26T07:25:30;27.10;67.50
45104;DHT22;30865;51.288;4.572;2023-06-26T07:27:55;27.20;66.90
45104;DHT22;30865;51.288;4.572;2023-06-26T07:30:21;27.30;66.00
45104;DHT22;30865;51.288;4.572;2023-06-26T07:32:47;27.50;65.50
45104;DHT22;30865;51.288;4.572;2023-06-26T07:35:12;27.40;66.00
45104;DHT22;30865;51.288;4.572;2023-06-26T07:37:38;27.80;64.40
45104;DHT22;30865;51.288;4.572;2023-06-26T07:40:04;28.00;62.90
45104;DHT22;30865;51.288;4.572;2023-06-26T07:42:29;28.20;61.80
45104;DHT22;30865;51.288;4.572;2023-06-26T07:44:55;28.50;60.90
45104;DHT22;30865;51.288;4.572;2023-06-26T07:47:20;28.60;60.80
45104;DHT22;30865;51.288;4.572;2023-06-26T07:49:46;28.50;60.10
45104;DHT22;30865;51.288;4.572;2023-06-26T07:52:11;28.70;59.50
45104;DHT22;30865;51.288;4.572;2023-06-26T07:54:37;28.60;58.70
45104;DHT22;30865;51.288;4.572;2023-06-26T07:57:04;28.60;58.80
45104;DHT22;30865;51.288;4.572;2023-06-26T07:59:32;28.90;57.20
45104;DHT22;30865;51.288;4.572;2023-06-26T08:01:58;29.10;56.00
45104;DHT22;30865;51.288;4.572;2023-06-26T08:04:26;29.00;55.90
45104;DHT22;30865;51.288;4.572;2023-06-26T08:06:54;29.60;54.70
45104;DHT22;30865;51.288;4.572;2023-06-26T08:09:22;29.50;53.30
45104;DHT22;30865;51.288;4.572;2023-06-26T08:11:49;29.60;52.50
45104;DHT22;30865;51.288;4.572;2023-06-26T08:14:16;29.70;52.60
45104;DHT22;30865;51.288;4.572;2023-06-26T08:16:42;30.00;52.10
45104;DHT22;30865;51.288;4.572;2023-06-26T08:19:09;29.90;52.20
45104;DHT22;30865;51.288;4.572;2023-06-26T08:21:35;30.20;51.20
45104;DHT22;30865;51.288;4.572;2023-06-26T08:24:01;30.30;50.80
45104;DHT22;30865;51.288;4.572;2023-06-26T08:26:26;30.30;50.90
45104;DHT22;30865;51.288;4.572;2023-06-26T08:28:52;30.00;50.50
45104;DHT22;30865;51.288;4.572;2023-06-26T08:31:17;30.40;49.90
45104;DHT22;30865;51.288;4.572;2023-06-26T08:33:43;30.40;49.70
45104;DHT22;30865;51.288;4.572;2023-06-26T08:36:09;30.00;49.50
45104;DHT22;30865;51.288;4.572;2023-06-26T08:38:34;30.20;49.60
45104;DHT22;30865;51.288;4.572;2023-06-26T08:41:00;30.80;48.30
45104;DHT22;30865;51.288;4.572;2023-06-26T08:43:26;30.70;48.10
45104;DHT22;30865;51.288;4.572;2023-06-26T08:45:52;31.10;47.80
45104;DHT22;30865;51.288;4.572;2023-06-26T08:48:18;31.10;46.80
45104;DHT22;30865;51.288;4.572;2023-06-26T08:50:48;31.10;46.80
45104;DHT22;30865;51.288;4.572;2023-06-26T08:53:33;31.00;46.20
45104;DHT22;30865;51.288;4.572;2023-06-26T08:56:02;31.20;46.20
45104;DHT22;30865;51.288;4.572;2023-06-26T08:58:28;31.70;45.80
45104;DHT22;30865;51.288;4.572;2023-06-26T09:00:53;31.30;45.30
45104;DHT22;30865;51.288;4.572;2023-06-26T09:03:21;31.30;45.70
45104;DHT22;30865;51.288;4.572;2023-06-26T09:05:47;31.50;45.60
45104;DHT22;30865;51.288;4.572;2023-06-26T09:08:12;31.50;45.50
45104;DHT22;30865;51.288;4.572;2023-06-26T09:10:39;31.70;45.30
45104;DHT22;30865;51.288;4.572;2023-06-26T09:13:05;31.80;44.80
45104;DHT22;30865;51.288;4.572;2023-06-26T09:15:43;31.60;44.50
45104;DHT22;30865;51.288;4.572;2023-06-26T09:18:09;31.60;44.60
45104;DHT22;30865;51.288;4.572;2023-06-26T09:20:34;31.50;44.90
45104;DHT22;30865;51.288;4.572;2023-06-26T09:23:00;31.90;44.30
45104;DHT22;30865;51.288;4.572;2023-06-26T09:25:27;32.00;44.20
45104;DHT22;30865;51.288;4.572;2023-06-26T09:27:53;32.30;43.90
45104;DHT22;30865;51.288;4.572;2023-06-26T09:30:19;31.80;43.90
45104;DHT22;30865;51.288;4.572;2023-06-26T09:32:46;32.20;44.00
45104;DHT22;30865;51.288;4.572;2023-06-26T09:35:12;32.10;42.80
45104;DHT22;30865;51.288;4.572;2023-06-26T09:37:38;32.50;43.00
45104;DHT22;30865;51.288;4.572;2023-06-26T09:40:04;32.80;42.00
45104;DHT22;30865;51.288;4.572;2023-06-26T09:42:30;33.00;42.10
45104;DHT22;30865;51.288;4.572;2023-06-26T09:44:56;32.90;41.50
45104;DHT22;30865;51.288;4.572;2023-06-26T09:47:22;33.30;41.60
45104;DHT22;30865;51.288;4.572;2023-06-26T09:49:48;33.20;40.90
45104;DHT22;30865;51.288;4.572;2023-06-26T09:52:18;33.40;41.90
45104;DHT22;30865;51.288;4.572;2023-06-26T09:54:45;33.40;41.00
45104;DHT22;30865;51.288;4.572;2023-06-26T09:57:12;33.30;40.30
45104;DHT22;30865;51.288;4.572;2023-06-26T09:59:42;32.80;41.00
45104;DHT22;30865;51.288;4.572;2023-06-26T10:02:07;32.70;41.50
45104;DHT22;30865;51.288;4.572;2023-06-26T10:04:34;32.90;41.30
45104;DHT22;30865;51.288;4.572;2023-06-26T10:07:02;33.10;40.70
45104;DHT22;30865;51.288;4.572;2023-06-26T10:09:30;32.40;41.50
45104;DHT22;30865;51.288;4.572;2023-06-26T10:12:11;31.80;43.00
45104;DHT22;30865;51.288;4.572;2023-06-26T10:14:41;31.70;43.50
45104;DHT22;30865;51.288;4.572;2023-06-26T10:17:09;31.90;43.70
45104;DHT22;30865;51.288;4.572;2023-06-26T10:19:37;32.10;43.40
45104;DHT22;30865;51.288;4.572;2023-06-26T10:22:04;31.70;43.20
45104;DHT22;30865;51.288;4.572;2023-06-26T10:24:33;32.10;43.70
45104;DHT22;30865;51.288;4.572;2023-06-26T10:27:02;32.10;43.90
45104;DHT22;30865;51.288;4.572;2023-06-26T10:29:30;32.00;44.20
45104;DHT22;30865;51.288;4.572;2023-06-26T10:31:58;32.20;44.30
45104;DHT22;30865;51.288;4.572;2023-06-26T10:34:26;32.00;44.20
45104;DHT22;30865;51.288;4.572;2023-06-26T10:37:02;32.20;44.30
45104;DHT22;30865;51.288;4.572;2023-06-26T10:42:11;32.30;44.10
45104;DHT22;30865;51.288;4.572;2023-06-26T10:44:45;32.10;45.00
45104;DHT22;30865;51.288;4.572;2023-06-26T10:47:30;32.00;45.90
45104;DHT22;30865;51.288;4.572;2023-06-26T10:49:57;31.60;46.30
45104;DHT22;30865;51.288;4.572;2023-06-26T10:52:26;31.40;46.70
45104;DHT22;30865;51.288;4.572;2023-06-26T10:54:54;31.20;47.20
45104;DHT22;30865;51.288;4.572;2023-06-26T10:57:26;30.90;48.10
45104;DHT22;30865;51.288;4.572;2023-06-26T11:00:11;30.90;48.40
45104;DHT22;30865;51.288;4.572;2023-06-26T11:02:48;30.80;46.90
45104;DHT22;30865;51.288;4.572;2023-06-26T11:05:23;30.80;46.50
45104;DHT22;30865;51.288;4.572;2023-06-26T11:08:06;31.00;46.00
45104;DHT22;30865;51.288;4.572;2023-06-26T11:10:53;31.40;46.20
45104;DHT22;30865;51.288;4.572;2023-06-26T11:13:19;31.60;45.10
45104;DHT22;30865;51.288;4.572;2023-06-26T11:15:49;31.70;45.00
45104;DHT22;30865;51.288;4.572;2023-06-26T11:18:15;32.10;45.10
45104;DHT22;30865;51.288;4.572;2023-06-26T11:20:41;32.10;44.50
45104;DHT22;30865;51.288;4.572;2023-06-26T11:23:08;32.10;44.90
45104;DHT22;30865;51.288;4.572;2023-06-26T11:25:37;32.10;44.50
45104;DHT22;30865;51.288;4.572;2023-06-26T11:28:05;32.20;44.40
45104;DHT22;30865;51.288;4.572;2023-06-26T11:30:31;32.50;44.40
45104;DHT22;30865;51.288;4.572;2023-06-26T11:33:09;32.20;45.10
45104;DHT22;30865;51.288;4.572;2023-06-26T11:35:35;32.30;44.40
45104;DHT22;30865;51.288;4.572;2023-06-26T11:38:02;32.40;44.50
45104;DHT22;30865;51.288;4.572;2023-06-26T11:40:35;32.30;44.40
45104;DHT22;30865;51.288;4.572;2023-06-26T11:43:02;32.40;43.20
45104;DHT22;30865;51.288;4.572;2023-06-26T11:45:29;32.60;43.10
45104;DHT22;30865;51.288;4.572;2023-06-26T11:47:56;32.20;44.30
45104;DHT22;30865;51.288;4.572;2023-06-26T11:50:23;31.80;45.60
45104;DHT22;30865;51.288;4.572;2023-06-26T11:52:56;31.70;46.10
45104;DHT22;30865;51.288;4.572;2023-06-26T11:55:23;31.70;45.40
45104;DHT22;30865;51.288;4.572;2023-06-26T11:57:49;31.70;45.70
45104;DHT22;30865;51.288;4.572;2023-06-26T12:00:16;31.60;46.00
45104;DHT22;30865;51.288;4.572;2023-06-26T12:02:45;31.30;46.50
45104;DHT22;30865;51.288;4.572;2023-06-26T12:05:12;31.30;47.20
45104;DHT22;30865;51.288;4.572;2023-06-26T12:07:38;31.10;46.80
45104;DHT22;30865;51.288;4.572;2023-06-26T12:10:05;31.10;47.10
45104;DHT22;30865;51.288;4.572;2023-06-26T12:12:32;31.40;47.20
45104;DHT22;30865;51.288;4.572;2023-06-26T12:15:02;31.30;49.50
45104;DHT22;30865;51.288;4.572;2023-06-26T12:17:29;31.40;50.00
45104;DHT22;30865;51.288;4.572;2023-06-26T12:19:54;31.80;50.00
45104;DHT22;30865;51.288;4.572;2023-06-26T12:22:20;32.00;49.40
45104;DHT22;30865;51.288;4.572;2023-06-26T12:24:46;32.00;49.80
45104;DHT22;30865;51.288;4.572;2023-06-26T12:27:15;31.90;50.20
45104;DHT22;30865;51.288;4.572;2023-06-26T12:29:50;31.90;49.40
45104;DHT22;30865;51.288;4.572;2023-06-26T12:32:16;32.10;49.50
45104;DHT22;30865;51.288;4.572;2023-06-26T12:34:49;32.10;49.50
45104;DHT22;30865;51.288;4.572;2023-06-26T12:37:18;32.10;49.60
45104;DHT22;30865;51.288;4.572;2023-06-26T12:39:50;32.10;49.10
45104;DHT22;30865;51.288;4.572;2023-06-26T12:42:21;32.10;49.40
45104;DHT22;30865;51.288;4.572;2023-06-26T12:44:47;32.20;48.90
45104;DHT22;30865;51.288;4.572;2023-06-26T12:47:14;31.90;49.30
45104;DHT22;30865;51.288;4.572;2023-06-26T12:49:42;31.70;49.90
45104;DHT22;30865;51.288;4.572;2023-06-26T12:52:13;31.80;50.10
45104;DHT22;30865;51.288;4.572;2023-06-26T12:54:52;32.10;49.90
45104;DHT22;30865;51.288;4.572;2023-06-26T12:57:18;31.90;49.70
45104;DHT22;30865;51.288;4.572;2023-06-26T12:59:45;32.30;49.30
45104;DHT22;30865;51.288;4.572;2023-06-26T13:02:11;32.50;48.40
45104;DHT22;30865;51.288;4.572;2023-06-26T13:04:37;32.40;48.40
45104;DHT22;30865;51.288;4.572;2023-06-26T13:07:07;32.00;48.70
45104;DHT22;30865;51.288;4.572;2023-06-26T13:09:33;32.10;48.90
45104;DHT22;30865;51.288;4.572;2023-06-26T13:12:03;32.00;48.80
45104;DHT22;30865;51.288;4.572;2023-06-26T13:14:32;32.30;47.90
45104;DHT22;30865;51.288;4.572;2023-06-26T13:16:58;32.40;47.60
45104;DHT22;30865;51.288;4.572;2023-06-26T13:19:24;32.40;48.00
45104;DHT22;30865;51.288;4.572;2023-06-26T13:21:49;32.30;48.10
45104;DHT22;30865;51.288;4.572;2023-06-26T13:24:15;32.30;48.60
45104;DHT22;30865;51.288;4.572;2023-06-26T13:26:41;32.30;47.80
45104;DHT22;30865;51.288;4.572;2023-06-26T13:29:06;32.10;47.60
45104;DHT22;30865;51.288;4.572;2023-06-26T13:31:32;31.80;48.30
45104;DHT22;30865;51.288;4.572;2023-06-26T13:33:58;31.30;49.20
45104;DHT22;30865;51.288;4.572;2023-06-26T13:36:26;31.40;49.10
45104;DHT22;30865;51.288;4.572;2023-06-26T13:38:52;31.60;48.50
45104;DHT22;30865;51.288;4.572;2023-06-26T13:41:24;31.60;48.20
45104;DHT22;30865;51.288;4.572;2023-06-26T13:43:59;31.70;47.90
45104;DHT22;30865;51.288;4.572;2023-06-26T13:46:24;31.90;47.40
45104;DHT22;30865;51.288;4.572;2023-06-26T13:48:51;32.10;46.60
45104;DHT22;30865;51.288;4.572;2023-06-26T13:51:16;32.00;46.70
45104;DHT22;30865;51.288;4.572;2023-06-26T13:53:42;32.10;45.80
45104;DHT22;30865;51.288;4.572;2023-06-26T13:56:07;32.60;45.60
45104;DHT22;30865;51.288;4.572;2023-06-26T13:58:35;32.30;44.90
45104;DHT22;30865;51.288;4.572;2023-06-26T14:01:03;32.60;44.30
45104;DHT22;30865;51.288;4.572;2023-06-26T14:03:29;32.20;43.80
45104;DHT22;30865;51.288;4.572;2023-06-26T14:05:55;32.20;43.60
45104;DHT22;30865;51.288;4.572;2023-06-26T14:08:20;31.90;43.10
45104;DHT22;30865;51.288;4.572;2023-06-26T14:10:46;32.00;43.30
45104;DHT22;30865;51.288;4.572;2023-06-26T14:13:11;32.50;42.60
45104;DHT22;30865;51.288;4.572;2023-06-26T14:15:40;33.20;41.20
45104;DHT22;30865;51.288;4.572;2023-06-26T14:18:06;33.30;40.40
45104;DHT22;30865;51.288;4.572;2023-06-26T14:20:32;33.10;40.10
45104;DHT22;30865;51.288;4.572;2023-06-26T14:22:58;33.30;40.10
45104;DHT22;30865;51.288;4.572;2023-06-26T14:25:24;33.40;39.50
45104;DHT22;30865;51.288;4.572;2023-06-26T14:27:49;33.90;39.30
45104;DHT22;30865;51.288;4.572;2023-06-26T14:30:15;33.80;39.20
45104;DHT22;30865;51.288;4.572;2023-06-26T14:32:40;34.20;38.10
45104;DHT22;30865;51.288;4.572;2023-06-26T14:35:06;34.20;36.90
45104;DHT22;30865;51.288;4.572;2023-06-26T14:37:32;33.80;37.40
45104;DHT22;30865;51.288;4.572;2023-06-26T14:39:57;33.20;38.00
45104;DHT22;30865;51.288;4.572;2023-06-26T14:42:24;33.80;38.40
45104;DHT22;30865;51.288;4.572;2023-06-26T14:44:50;34.20;37.50
45104;DHT22;30865;51.288;4.572;2023-06-26T14:47:19;33.70;38.50
45104;DHT22;30865;51.288;4.572;2023-06-26T14:49:51;33.60;38.00
45104;DHT22;30865;51.288;4.572;2023-06-26T14:52:16;33.30;38.40
45104;DHT22;30865;51.288;4.572;2023-06-26T14:54:42;33.80;37.90
45104;DHT22;30865;51.288;4.572;2023-06-26T14:57:12;33.90;37.80
45104;DHT22;30865;51.288;4.572;2023-06-26T14:59:37;33.50;38.10
45104;DHT22;30865;51.288;4.572;2023-06-26T15:02:03;33.60;38.10
45104;DHT22;30865;51.288;4.572;2023-06-26T15:04:28;34.20;37.40
45104;DHT22;30865;51.288;4.572;2023-06-26T15:06:57;33.80;38.40
45104;DHT22;30865;51.288;4.572;2023-06-26T15:09:24;33.90;38.50
45104;DHT22;30865;51.288;4.572;2023-06-26T15:11:49;33.40;39.20
45104;DHT22;30865;51.288;4.572;2023-06-26T15:14:15;33.00;40.10
45104;DHT22;30865;51.288;4.572;2023-06-26T15:16:40;33.20;39.90
45104;DHT22;30865;51.288;4.572;2023-06-26T15:19:06;33.50;39.60
45104;DHT22;30865;51.288;4.572;2023-06-26T15:21:41;33.10;39.90
45104;DHT22;30865;51.288;4.572;2023-06-26T15:24:06;33.80;39.50
45104;DHT22;30865;51.288;4.572;2023-06-26T15:26:32;34.00;38.50
45104;DHT22;30865;51.288;4.572;2023-06-26T15:28:57;33.30;39.30
45104;DHT22;30865;51.288;4.572;2023-06-26T15:31:23;32.30;40.60